Time;durP1;ratioP1;P1;durP2;ratioP2;P2;SDS_P1;SDS_P2;PMS_P1;PMS_P2;Temp;Humidity;BMP_temperature;BMP_pressure;BME280_temperature;BME280_humidity;BME280_pressure;Samples;Min_cycle;Max_cycle;Signal;HPM_P1;HPM_P2
2022/12/16 00:01:16;;;;;;;28.13;12.53;;;;;;;3.20;37.61;100771.88;4894902;29;20047;-58
2022/12/16 00:03:46;;;;;;;35.50;14.07;;;;;;;3.17;38.26;100772.03;4894956;29;20041;-58
2022/12/16 00:06:11;;;;;;;32.13;12.77;;;;;;;3.16;38.19;100786.19;4894439;29;20037;-58
2022/12/16 00:08:38;;;;;;;27.80;12.90;;;;;;;3.16;38.39;100780.91;4894609;29;20041;-58
2022/12/16 00:11:04;;;;;;;27.97;14.03;;;;;;;3.20;38.49;100782.47;4863975;29;20041;-57
2022/12/16 00:13:31;;;;;;;31.73;12.80;;;;;;;3.17;37.55;100782.63;4894332;29;20041;-57
2022/12/16 00:15:57;;;;;;;33.73;13.07;;;;;;;3.15;38.74;100780.06;4864068;29;20043;-58
2022/12/16 00:18:23;;;;;;;31.93;14.27;;;;;;;3.15;37.93;100782.72;4878955;29;20041;-58
2022/12/16 00:20:51;;;;;;;26.37;12.97;;;;;;;3.10;37.65;100782.09;4894346;29;20025;-58
2022/12/16 00:23:17;;;;;;;29.77;12.47;;;;;;;3.10;36.69;100775.97;4878137;29;20060;-58
2022/12/16 00:25:43;;;;;;;36.13;12.70;;;;;;;3.05;38.37;100768.25;4878951;29;20040;-57
2022/12/16 00:28:09;;;;;;;27.60;12.33;;;;;;;3.02;38.69;100772.84;4894017;29;20049;-58
2022/12/16 00:30:34;;;;;;;32.53;12.67;;;;;;;2.98;37.31;100776.63;4879271;29;20037;-58
2022/12/16 00:33:00;;;;;;;35.50;13.67;;;;;;;2.93;37.63;100774.25;4894462;29;20056;-57
2022/12/16 00:35:25;;;;;;;34.90;14.50;;;;;;;2.88;37.69;100768.31;4875206;29;20049;-58
2022/12/16 00:37:51;;;;;;;31.07;12.67;;;;;;;2.85;37.45;100765.84;4891179;29;20041;-58
2022/12/16 00:40:16;;;;;;;30.40;13.67;;;;;;;2.87;38.06;100777.22;4890753;29;20508;-58
2022/12/16 00:42:41;;;;;;;21.77;11.73;;;;;;;2.83;38.35;100773.88;4890761;29;20069;-57
2022/12/16 00:45:07;;;;;;;38.20;12.97;;;;;;;2.78;37.85;100775.91;4891310;29;20136;-59
2022/12/16 00:47:32;;;;;;;27.70;13.63;;;;;;;2.77;37.75;100784.75;4891203;29;20059;-58
2022/12/16 00:49:57;;;;;;;30.10;12.20;;;;;;;2.75;38.60;100776.06;4890139;29;20033;-58
2022/12/16 00:52:23;;;;;;;30.47;14.83;;;;;;;2.74;37.99;100778.78;4891846;29;20075;-57
2022/12/16 00:54:48;;;;;;;38.10;12.27;;;;;;;2.73;38.09;100777.94;4892359;29;20058;-58
2022/12/16 00:57:14;;;;;;;31.93;13.33;;;;;;;2.72;37.72;100780.66;4890949;29;20112;-58
2022/12/16 00:59:39;;;;;;;27.50;13.60;;;;;;;2.73;38.40;100777.94;4891000;29;20461;-58
2022/12/16 01:02:05;;;;;;;34.60;14.53;;;;;;;2.71;38.18;100785.06;4890913;29;20064;-58
2022/12/16 01:04:30;;;;;;;32.67;15.10;;;;;;;2.69;38.50;100783.44;4875301;29;20040;-59
2022/12/16 01:06:55;;;;;;;43.33;15.37;;;;;;;2.69;38.12;100801.97;4874222;29;20120;-57
2022/12/16 01:09:21;;;;;;;28.73;12.70;;;;;;;2.71;37.50;100793.00;4890560;29;20104;-58
2022/12/16 01:11:46;;;;;;;41.40;13.93;;;;;;;2.74;38.45;100795.50;4892041;29;20128;-58
2022/12/16 01:14:12;;;;;;;30.60;12.27;;;;;;;2.78;38.22;100799.69;4890165;29;20104;-60
2022/12/16 01:16:37;;;;;;;30.70;14.13;;;;;;;2.79;37.17;100803.22;4890542;29;20048;-58
2022/12/16 01:19:03;;;;;;;24.33;11.73;;;;;;;2.77;38.24;100805.91;4889864;29;20049;-58
2022/12/16 01:21:28;;;;;;;24.50;13.10;;;;;;;2.75;37.61;100810.44;4874697;29;20090;-58
2022/12/16 01:23:53;;;;;;;28.23;12.13;;;;;;;2.77;37.94;100816.50;4890181;29;20044;-58
2022/12/16 01:26:20;;;;;;;24.07;12.77;;;;;;;2.77;37.36;100820.91;4889464;29;20037;-58
2022/12/16 01:28:47;;;;;;;29.97;12.07;;;;;;;2.75;37.89;100818.38;4889191;29;20040;-58
2022/12/16 01:31:14;;;;;;;31.83;12.50;;;;;;;2.75;37.42;100818.38;4858142;29;20033;-58
2022/12/16 01:33:39;;;;;;;29.50;12.73;;;;;;;2.77;38.80;100821.78;4890701;29;20487;-57
2022/12/16 01:36:06;;;;;;;30.30;13.00;;;;;;;2.78;38.42;100823.50;4890093;29;20086;-58
2022/12/16 01:38:32;;;;;;;29.60;12.87;;;;;;;2.77;38.41;100831.50;4889523;29;20185;-58
2022/12/16 01:40:57;;;;;;;27.93;13.00;;;;;;;2.77;37.60;100827.06;4889112;29;20044;-57
2022/12/16 01:43:28;;;;;;;24.83;12.53;;;;;;;2.78;38.78;100828.78;4889840;29;20057;-58
2022/12/16 01:46:17;;;;;;;24.33;11.87;;;;;;;2.74;38.51;100832.50;4888906;29;20063;-57
2022/12/16 01:48:47;;;;;;;25.53;11.77;;;;;;;2.80;38.03;100826.91;4889491;29;20145;-57
2022/12/16 01:51:22;;;;;;;31.53;13.70;;;;;;;2.80;38.34;100828.69;4890126;29;20105;-58
2022/12/16 01:53:53;;;;;;;27.17;12.17;;;;;;;2.81;38.73;100836.56;4889982;29;20101;-60
2022/12/16 01:56:19;;;;;;;33.60;12.23;;;;;;;2.82;39.16;100835.63;4889732;29;20040;-58
2022/12/16 01:58:44;;;;;;;26.83;11.90;;;;;;;2.82;37.64;100840.06;4889917;29;20056;-58
2022/12/16 02:01:10;;;;;;;32.53;12.30;;;;;;;2.82;38.90;100840.91;4873439;29;20037;-58
2022/12/16 02:03:36;;;;;;;31.97;12.27;;;;;;;2.86;38.13;100852.19;4889505;29;20036;-60
2022/12/16 02:06:03;;;;;;;24.63;10.67;;;;;;;2.85;38.90;100848.69;4874040;29;20037;-58
2022/12/16 02:08:28;;;;;;;28.17;13.40;;;;;;;2.84;38.46;100839.06;4873618;29;20061;-58
2022/12/16 02:10:54;;;;;;;27.30;12.77;;;;;;;2.83;38.18;100836.47;4890104;29;20403;-57
2022/12/16 02:13:56;;;;;;;28.33;12.93;;;;;;;2.79;38.01;100840.22;4890342;29;20511;-57
2022/12/16 02:16:27;;;;;;;32.40;10.87;;;;;;;2.78;37.73;100844.66;4861927;29;20414;-57
2022/12/16 02:19:01;;;;;;;30.10;12.40;;;;;;;2.76;37.51;100843.84;4893307;29;20044;-58
2022/12/16 02:21:36;;;;;;;24.67;11.53;;;;;;;2.75;37.83;100838.66;4877386;29;20037;-57
2022/12/16 02:24:37;;;;;;;25.83;13.77;;;;;;;2.76;38.50;100848.31;4893276;29;20131;-58
2022/12/16 02:27:22;;;;;;;28.00;12.73;;;;;;;2.76;39.06;100846.50;4892477;29;20052;-58
2022/12/16 02:30:38;;;;;;;24.53;12.60;;;;;;;2.78;39.09;100847.31;4892980;29;20049;-58
2022/12/16 02:33:17;;;;;;;29.33;11.57;;;;;;;2.77;38.87;100848.22;4855303;29;20095;-58
2022/12/16 02:35:49;;;;;;;28.87;11.80;;;;;;;2.74;38.18;100853.66;4888793;29;20065;-58
2022/12/16 02:38:25;;;;;;;30.40;11.10;;;;;;;2.76;37.93;100849.16;4893518;29;20052;-57
2022/12/16 02:41:03;;;;;;;27.47;11.40;;;;;;;2.79;38.38;100846.34;4894004;29;20065;-58
2022/12/16 02:43:31;;;;;;;32.03;10.90;;;;;;;2.80;38.78;100842.78;4877039;29;20068;-57
2022/12/16 02:45:57;;;;;;;34.83;12.40;;;;;;;2.80;39.02;100842.78;4893075;29;20058;-58
2022/12/16 02:48:23;;;;;;;32.23;11.83;;;;;;;2.82;38.89;100843.53;4892138;29;20115;-58
2022/12/16 02:50:50;;;;;;;29.07;12.10;;;;;;;2.86;38.43;100850.41;4893878;29;20084;-58
2022/12/16 02:53:17;;;;;;;30.47;12.60;;;;;;;2.88;38.64;100851.16;4893655;29;20040;-58
2022/12/16 02:56:01;;;;;;;28.20;11.30;;;;;;;2.91;38.07;100856.28;4893690;29;20041;-58
2022/12/16 02:58:51;;;;;;;25.67;11.13;;;;;;;2.91;38.42;100856.28;4893662;29;20037;-58
2022/12/16 03:01:36;;;;;;;28.50;11.87;;;;;;;2.91;37.79;100853.66;4876867;29;20045;-58
2022/12/16 03:04:07;;;;;;;25.30;12.23;;;;;;;2.92;39.02;100857.16;4892013;29;20052;-57
2022/12/16 03:06:34;;;;;;;28.27;12.67;;;;;;;2.92;38.56;100847.44;4891630;29;20033;-58
2022/12/16 03:09:02;;;;;;;25.47;11.40;;;;;;;2.94;38.50;100850.00;4892595;29;20059;-57
2022/12/16 03:11:29;;;;;;;31.53;12.17;;;;;;;2.94;38.03;100850.84;4892545;29;20094;-57
2022/12/16 03:13:56;;;;;;;31.27;12.13;;;;;;;2.91;39.33;100851.00;4892004;29;20041;-58
2022/12/16 03:16:25;;;;;;;23.37;12.73;;;;;;;2.96;38.30;100844.63;4861820;29;20033;-58
2022/12/16 03:18:53;;;;;;;30.90;11.03;;;;;;;2.93;38.18;100849.13;4876331;29;20512;-58
2022/12/16 03:21:20;;;;;;;29.33;11.27;;;;;;;2.92;38.34;100850.09;4892868;29;20028;-58
2022/12/16 03:23:50;;;;;;;27.00;11.53;;;;;;;2.94;37.88;100864.06;4876785;29;20025;-58
2022/12/16 03:26:21;;;;;;;36.43;13.70;;;;;;;2.94;37.88;100861.44;4876521;29;20049;-58
2022/12/16 03:29:00;;;;;;;25.47;12.70;;;;;;;2.95;37.94;100862.28;4890564;29;20040;-58
2022/12/16 03:31:56;;;;;;;24.77;12.20;;;;;;;2.94;37.98;100866.72;4892038;29;20097;-57
2022/12/16 03:34:30;;;;;;;30.53;13.17;;;;;;;2.96;37.84;100874.56;4858670;29;20044;-58
2022/12/16 03:37:03;;;;;;;26.07;11.47;;;;;;;2.96;39.59;100869.28;4911265;29;20055;-57
2022/12/16 03:39:30;;;;;;;31.35;11.75;;;;;;;2.92;38.09;100868.59;4894920;29;20043;-58
2022/12/16 03:41:57;;;;;;;32.40;12.10;;;;;;;2.93;39.74;100875.59;4895172;29;20424;-58
2022/12/16 03:44:24;;;;;;;30.10;10.97;;;;;;;2.90;38.91;100870.44;4879549;29;20041;-58
2022/12/16 03:46:50;;;;;;;24.97;10.97;;;;;;;2.93;38.04;100869.47;4896911;29;20044;-58
2022/12/16 03:49:15;;;;;;;28.77;11.97;;;;;;;2.90;38.53;100870.44;4895064;29;20033;-58
2022/12/16 03:51:41;;;;;;;22.97;9.80;;;;;;;2.89;39.23;100881.97;4894201;29;20039;-58
2022/12/16 03:54:06;;;;;;;29.73;11.07;;;;;;;2.88;39.12;100882.91;4895357;29;20040;-58
2022/12/16 03:56:31;;;;;;;26.00;11.97;;;;;;;2.89;37.96;100895.22;4894665;29;20041;-58
2022/12/16 03:58:57;;;;;;;25.77;10.97;;;;;;;2.85;38.99;100888.34;4894235;29;20033;-58
2022/12/16 04:01:23;;;;;;;28.13;11.00;;;;;;;2.88;39.02;100897.91;4879027;29;20563;-58
2022/12/16 04:03:48;;;;;;;30.87;10.60;;;;;;;2.87;39.49;100902.38;4894880;29;20039;-58
2022/12/16 04:06:17;;;;;;;25.10;11.93;;;;;;;2.92;39.23;100913.56;4910862;29;20095;-58
2022/12/16 04:08:46;;;;;;;29.53;13.83;;;;;;;2.92;39.16;100912.72;4879516;29;20104;-58
2022/12/16 04:25:02;;;;;;;20.27;10.03;;;;;;;3.02;39.22;100921.00;4896986;29;20510;-58
2022/12/16 04:27:28;;;;;;;36.03;10.60;;;;;;;3.01;38.45;100909.59;4878178;29;20029;-58
